Terminal Aerodrome Forecast
Issued by NWS Twin Cities, MN

Home | Current Version | Previous Version | Graphics & Text | Print | Product List | Glossary On
Versions: 1 2 3 4 5 6 7 8 9 10 11 12 13 14 15
000
FTUS43 KMPX 202320
TAFEAU
TAF
KEAU 202320Z 2100/2124 19012KT P6SM SKC
     FM210100 17012KT P6SM FEW250 WS020/19045KT
     FM211100 17010KT P6SM VCSH BKN080
     FM211400 18011KT 6SM -SHRA OVC045
     FM211600 18012G20KT P6SM OVC040
     FM211800 17010KT P6SM OVC025=

USA.gov is the U.S. government's official web portal to all federal, state and local government web resources and services.